Racecast

Luke McDonald

Poudre (CO) · 12 · FRONT RANGECO D5A5A · Compare head to head

Athlete rating 118.6 2022 TF season
Best race 130.5 XC
Races 55
Seasons 5 2018 — 2022

RankedNation #18658·CO #497·CO D5A #270·FRONT RANGE #55·Team #5 ?

Speed rating — all races

Cross Country

XC speed rating

2021 XC 124.8

Poudre (CO) · Grade 12

Date Meet Event Result Place Rating Difficulty PR/SR Flags
2021-11-20 Shalimar Country Club 5000m 17:26.6 78th · 3rd on team 120.5 +0.005 ★CR CSR
2021-10-21 Monfort Park 5000m 17:42.4 32nd · 5th on team 120.5 +0.019 ★CR CSR
2021-10-08 Spring Canyon Park 5000m 17:16 17th · 2nd on team 125.2 +0.037 ★CR CSR
2021-10-01 Bear Creek Regional Park East 5000m 17:00.2 33rd · 2nd on team 124.4 +0.011 ★CR CSR
2021-09-17 North Lake Park 5000m 16:59 11th · 3rd on team 127.1 +0.041 ★CR CSR
2021-09-11 Heritage High School 5000m 16:22.8 36th · 1st on team 130.5 -0.001 ★PR ★CR ★R SR CSR RSR
2021-09-03 Little America Golf Course 5000m 17:34 15th · 2nd on team 125.5 +0.065 ★CR CSR
2021-08-28 Fort Collins High School 5000m 17:05 6th · 2nd on team 126.0 +0.023 PR ★CR R SR CSR RSR
2021-08-21 Spring Canyon Park 5000m 17:27 9th · 2nd on team 123.5 +0.037 CR R SR CSR RSR

2020 XC 117.3

Poudre (CO) · Grade 11

Date Meet Event Result Place Rating Difficulty PR/SR Flags
2020-10-02 Spring Canyon Park 5000m 19:26.7 40th · 9th on team 111.9 +0.037
2020-09-25 North Lake Park 5000m 18:46.2 31st · 4th on team 116.4 +0.041 CSR
2020-09-18 Lincoln Middle School 5000m 18:20 15th · 5th on team 117.9 +0.027 ★CR CSR
2020-08-29 Fort Collins High School 5000m 17:30 10th · 2nd on team 121.5 +0.023 CR R SR CSR RSR
2020-08-21 Spring Canyon Park 5000m 18:30 8th · 1st on team 118.9 +0.037 CR SR CSR RSR

2019 XC 116.6

Poudre (CO) · Grade 10

Date Meet Event Result Place Rating Difficulty PR/SR Flags
2019-11-23 Grande Sports Complex 5000m 17:10.8 93rd · 3rd on team 120.4 +0.004 PR ★CR SR CSR
2019-10-11 Spring Canyon Park 5000m 18:37 17th · 3rd on team 115.5 +0.037 CR CSR
2019-09-21 Lyons Middle/High School 5000m 19:56 38th · 6th on team 109.2 +0.046 CSR
2019-08-30 Julia deKoevend Park 5000m 18:03 51st · 3rd on team 121.1 +0.054 ★CR R SR CSR RSR

2018 XC 116.2

Poudre (CO) · Grade 9

Date Meet Event Result Place Rating Difficulty PR/SR Flags
2018-11-17 Grande Sports Complex 5000m 17:31.1 261st · 3rd on team 118.9 +0.004 PR CR R SR CSR RSR
2018-10-27 Norris Penrose Event Center 5000m 19:55.7 156th · 7th on team 111.3 +0.067
2018-10-18 Adams County Regional Park 5000m 20:01.6 78th · 9th on team 108.9 +0.048 ★CR CSR
2018-10-05 Northwest Open Space 5000m 17:58.1 75th · 2nd on team 118.4 +0.020 ★CR CSR
2018-09-28 Margaret W. Carpenter Recreation Center 5000m 17:38 84th · 3rd on team 118.6 +0.014 PR ★CR SR CSR
2018-09-21 North Lake Park 5000m 18:10 42nd · 4th on team 118.8 +0.041 PR CR R SR CSR RSR
2018-09-08 Lyons Middle/High School 5000m 18:41 122nd · 3rd on team 115.7 +0.046 ★CR CSR
2018-08-31 Julia deKoevend Park 5000m 18:28 82nd · 3rd on team 118.3 +0.054 PR CR R SR CSR RSR
2018-08-24 Norris Penrose Event Center 5000m 19:05.1 64th · 4th on team 116.7 +0.067 PR ★CR R SR CSR RSR

Track & Field

TF speed rating

2022 TF 115.1

Poudre (CO) · Grade 12

Date Meet Event Result Place Rating Difficulty PR/SR Flags
2022-05-13 John Martin Invitational 800m 2:16.14 12th · 3rd on team 114.3 -0.011 SR
2022-05-13 John Martin Invitational 1600m 4:52.54 6th · 2nd on team 118.6 -0.011
2022-05-06 Front Range League Championships 1600m 4:52.17 21st · 2nd on team 119.5 -0.009 SR RSR
2022-04-30 Liberty Bell Track and Field Invitational 3200m 10:52.37 42nd · 1st on team 114.8 -0.015 SR RSR
2022-04-12 Randy Yaussi City Championships 1600m 5:10.39 8th · 1st on team 112.4 -0.009 SR RSR
2022-04-09 Hawk Invitational 1600m 5:12.72 25th · 1st on team 111.3 -0.006 SR RSR

2021 TF 119.6

Poudre (CO) · Grade 11

Date Meet Event Result Place Rating Difficulty PR/SR Flags
2021-06-12 Liberty Bell Invitational 3200m 10:28.57 21st · 1st on team 120.0 -0.015
2021-06-04 NOCO Series #3 3200m 10:30.88 3rd · 1st on team 120.7 -0.007
2021-06-03 City Championships 800m 2:11.76 8th · 1st on team 118.9 -0.009 ★PR SR
2021-05-27 NOCO Series Meet #2 3200m 10:21.85 1st · 1st on team 122.2 -0.008 ★PR R SR RSR
2021-05-21 Randall Hess Invitational 1600m 4:51.78 8th · 1st on team 119.2 -0.014 ★PR SR RSR
2021-05-15 Murray Kula Invitational 1600m 4:56.82 17th · 1st on team 117.9 -0.008 PR SR
2021-05-14 Max Marr Invitational 3200m 10:41.83 3rd · 1st on team 118.3 -0.007 PR SR RSR

2019 TF 114.3

Poudre (CO) · Grade 9

Date Meet Event Result Place Rating Difficulty PR/SR Flags
2019-05-10 John Martin Invitational 3200m 10:48.43 9th · 2nd on team 116.2 -0.012 PR SR
2019-05-10 John Martin Invitational 800m 2:14.52 17th · 3rd on team 116.0 -0.012 PR SR
2019-05-03 Front Range League Championships 3200m 10:51.65 18th · 2nd on team 116.2 -0.012 PR SR
2019-05-03 Front Range League Championships 1600m 5:00.72 38th · 2nd on team 116.2 -0.012
2019-04-27 Liberty Bell Invitational 1600m 4:57.2 43rd · 1st on team 117.3 -0.015 PR SR RSR
2019-04-24 Centennial State JV Championship 1600m 5:06.36 2nd · 1st on team 114.4 -0.011
2019-04-13 Mountain Range Mustang Track & Field Invitational 3200m 11:02.66 16th · 2nd on team 114.2 -0.006
2019-04-09 Randy Yaussi City Championships 3200m 11:22.46 5th · 1st on team 111.6 -0.009
2019-04-09 Randy Yaussi City Championships 1600m 5:01.88 14th · 3rd on team 116.4 -0.009 PR SR RSR
2019-03-30 Altitude Running Invitational 3200m 10:57.05 13th · 1st on team 115.3 -0.012 PR SR
2019-03-22 Runners Roost of Fort Collins Invitational 1600m 5:02.68 14th · 2nd on team 116.2 -0.009 PR SR RSR
2019-03-22 Runners Roost of Fort Collins Invitational 800m 2:19.47 24th · 3rd on team 112.2 -0.009 PR SR
2019-03-12 Fleet Feet Qualifier 1600m 5:10.48 10th · 2nd on team 112.1 -0.015 PR SR
2019-03-09 CSU-Pueblo Early-Bird 1600m 5:24.29 20th · 2nd on team 108.1 -0.011 PR SR RSR
2019-03-09 CSU-Pueblo Early-Bird 3200m 11:13.64 9th · 1st on team 112.6 -0.011 PR SR RSR